Time;durP1;ratioP1;P1;durP2;ratioP2;P2;SDS_P1;SDS_P2;PMS_P1;PMS_P2;Temp;Humidity;BMP_temperature;BMP_pressure;BME280_temperature;BME280_humidity;BME280_pressure;Samples;Min_cycle;Max_cycle;Signal;HPM_P1;HPM_P2
2023/08/15 00:02:25;;;;;;;6.03;5.50;;;;;;;26.12;53.20;100624.28;5032946;28;20209;-64
2023/08/15 00:04:53;;;;;;;5.97;5.38;;;;;;;26.09;52.99;100622.69;5033212;28;20217;-65
2023/08/15 00:07:21;;;;;;;7.78;5.10;;;;;;;26.07;53.25;100623.72;5025259;28;20625;-63
2023/08/15 00:09:49;;;;;;;7.68;5.40;;;;;;;26.04;53.29;100619.50;5027565;28;20275;-64
2023/08/15 00:12:17;;;;;;;6.70;5.82;;;;;;;26.01;53.89;100620.56;5032793;28;20265;-63
2023/08/15 00:14:45;;;;;;;5.88;5.22;;;;;;;25.99;53.50;100617.16;5032982;28;20632;-64
2023/08/15 00:17:15;;;;;;;13.35;5.60;;;;;;;25.98;53.92;100626.03;5032004;28;20231;-62
2023/08/15 00:19:42;;;;;;;5.55;5.05;;;;;;;25.95;53.92;100626.22;5021099;28;20291;-63
2023/08/15 00:22:10;;;;;;;5.63;5.13;;;;;;;25.94;54.17;100627.19;5029233;28;20654;-65
2023/08/15 00:24:38;;;;;;;6.90;5.22;;;;;;;25.91;53.72;100630.03;5026721;28;20294;-63
2023/08/15 00:27:06;;;;;;;6.00;5.50;;;;;;;25.90;53.94;100628.34;5028226;28;20274;-64
2023/08/15 00:29:34;;;;;;;5.93;5.32;;;;;;;25.88;54.04;100629.38;5032431;28;20266;-64
2023/08/15 00:32:02;;;;;;;7.43;5.75;;;;;;;25.84;54.50;100618.19;5032836;28;20555;-65
2023/08/15 00:34:31;;;;;;;5.30;4.80;;;;;;;25.83;54.46;100619.13;5028582;28;20215;-64
2023/08/15 00:36:59;;;;;;;7.90;6.03;;;;;;;25.80;54.56;100611.41;5023061;28;20297;-62
2023/08/15 00:39:27;;;;;;;6.25;5.00;;;;;;;25.79;54.86;100617.66;5032172;28;20214;-64
2023/08/15 00:41:56;;;;;;;6.57;5.70;;;;;;;25.75;55.00;100611.69;5032379;28;20214;-63
2023/08/15 00:44:24;;;;;;;8.65;5.88;;;;;;;25.73;55.04;100612.72;5018379;28;20270;-62
2023/08/15 00:46:52;;;;;;;8.30;5.40;;;;;;;25.71;55.21;100618.13;5024861;28;20210;-63
2023/08/15 00:49:20;;;;;;;6.03;5.43;;;;;;;25.68;54.89;100612.19;5027232;28;20229;-64
2023/08/15 00:51:50;;;;;;;5.90;5.40;;;;;;;25.68;55.53;100612.19;5012811;28;20655;-62
2023/08/15 00:54:19;;;;;;;6.40;5.25;;;;;;;25.65;55.00;100617.66;5025298;28;20681;-65
2023/08/15 00:56:47;;;;;;;5.88;5.38;;;;;;;25.64;55.53;100616.00;5031954;28;20209;-63
2023/08/15 00:59:15;;;;;;;7.53;5.78;;;;;;;25.64;55.65;100621.25;5032214;28;20670;-63
2023/08/15 01:01:44;;;;;;;6.35;5.80;;;;;;;25.60;55.75;100617.13;5032240;28;20199;-63
2023/08/15 01:04:12;;;;;;;6.53;5.43;;;;;;;25.56;55.97;100618.28;5032120;28;20723;-63
2023/08/15 01:06:40;;;;;;;6.75;6.05;;;;;;;25.53;55.95;100620.16;5031741;28;20211;-62
2023/08/15 01:09:10;;;;;;;7.30;6.20;;;;;;;25.51;56.06;100619.41;5031720;28;20206;-64
2023/08/15 01:11:45;;;;;;;9.52;6.05;;;;;;;25.49;56.10;100620.47;5031444;28;20210;-63
2023/08/15 01:14:19;;;;;;;10.60;6.45;;;;;;;25.44;56.06;100604.94;5031648;28;20253;-63
2023/08/15 01:16:49;;;;;;;18.27;11.30;;;;;;;25.40;56.74;100619.25;5031818;28;20207;-69
2023/08/15 01:19:27;;;;;;;11.82;6.68;;;;;;;25.36;56.51;100617.75;5029775;28;20194;-63
2023/08/15 01:21:58;;;;;;;10.30;6.85;;;;;;;25.33;56.54;100617.09;5027191;28;20205;-64
2023/08/15 01:24:29;;;;;;;6.85;6.15;;;;;;;25.30;56.72;100611.09;5020468;28;20215;-64
2023/08/15 01:26:57;;;;;;;7.32;6.15;;;;;;;25.31;56.96;100614.56;5031347;28;20256;-65
2023/08/15 01:29:25;;;;;;;7.43;5.90;;;;;;;25.29;56.89;100612.03;5031645;28;20627;-66
2023/08/15 01:32:01;;;;;;;6.25;5.65;;;;;;;25.28;56.68;100612.13;5031334;28;20214;-62
2023/08/15 01:34:34;;;;;;;6.20;5.60;;;;;;;25.26;56.94;100612.25;5027687;28;20846;-64
2023/08/15 01:37:09;;;;;;;6.35;5.75;;;;;;;25.25;56.76;100614.97;5024748;28;20210;-62
2023/08/15 01:39:41;;;;;;;6.40;5.60;;;;;;;25.23;56.85;100612.44;5031432;28;20616;-63
2023/08/15 01:42:10;;;;;;;7.60;5.32;;;;;;;25.21;56.75;100608.19;5031485;28;20218;-64
2023/08/15 01:44:38;;;;;;;9.07;6.22;;;;;;;25.18;56.59;100617.13;5031325;28;20253;-64
2023/08/15 01:47:07;;;;;;;8.18;5.82;;;;;;;25.16;57.19;100610.28;5031573;28;20661;-63
2023/08/15 01:49:35;;;;;;;7.85;5.43;;;;;;;25.17;57.13;100611.97;5031241;28;20620;-64
2023/08/15 01:52:03;;;;;;;8.23;5.57;;;;;;;25.18;57.01;100608.38;5030939;28;20207;-63
2023/08/15 01:54:31;;;;;;;6.93;5.00;;;;;;;25.19;57.11;100607.47;5030614;28;20608;-62
2023/08/15 01:57:01;;;;;;;6.60;5.15;;;;;;;25.18;57.18;100614.50;5018331;28;20284;-65
2023/08/15 01:59:29;;;;;;;6.00;4.93;;;;;;;25.17;57.04;100607.53;5031661;28;20215;-65
2023/08/15 02:01:57;;;;;;;6.70;5.38;;;;;;;25.17;56.70;100612.81;5031221;28;20210;-64
2023/08/15 02:04:24;;;;;;;5.50;5.00;;;;;;;25.16;57.12;100616.41;5031566;28;20213;-65
2023/08/15 02:06:52;;;;;;;5.45;4.95;;;;;;;25.15;56.94;100617.34;5026344;28;20199;-63
2023/08/15 02:09:20;;;;;;;5.65;5.15;;;;;;;25.12;57.29;100614.91;5021870;28;20214;-66
2023/08/15 02:11:48;;;;;;;7.72;5.30;;;;;;;25.08;57.28;100616.00;5031120;28;20207;-63
2023/08/15 02:14:18;;;;;;;7.50;5.18;;;;;;;25.07;56.95;100622.22;5030602;28;20199;-65
2023/08/15 02:16:46;;;;;;;8.60;5.72;;;;;;;25.04;57.18;100618.00;5031065;28;20222;-64
2023/08/15 02:19:13;;;;;;;7.95;5.60;;;;;;;25.03;57.41;100625.97;5030893;28;20260;-63
2023/08/15 02:21:41;;;;;;;7.00;5.78;;;;;;;25.01;57.80;100623.44;5030655;28;20238;-65
2023/08/15 02:24:09;;;;;;;6.30;5.20;;;;;;;25.00;57.53;100621.78;5030967;28;20669;-64
2023/08/15 02:26:37;;;;;;;7.20;6.25;;;;;;;24.96;57.31;100622.03;5034665;28;20202;-65
2023/08/15 02:29:05;;;;;;;6.40;5.45;;;;;;;24.93;57.60;100628.38;5034615;28;20241;-65
2023/08/15 02:31:35;;;;;;;6.60;5.55;;;;;;;24.92;58.03;100626.66;5035617;28;20712;-62
2023/08/15 02:34:02;;;;;;;7.50;5.82;;;;;;;24.92;57.87;100624.00;5035109;28;20213;-64
2023/08/15 02:36:31;;;;;;;5.63;5.13;;;;;;;24.91;58.08;100622.31;5034488;28;20594;-61
2023/08/15 02:38:58;;;;;;;8.90;5.20;;;;;;;24.89;58.18;100629.50;5034732;28;20286;-62
2023/08/15 02:41:26;;;;;;;7.43;5.78;;;;;;;24.86;58.20;100627.06;5034454;28;20206;-62
2023/08/15 02:43:54;;;;;;;6.90;5.60;;;;;;;24.84;58.32;100626.28;5034851;28;20617;-64
2023/08/15 02:46:25;;;;;;;7.10;6.40;;;;;;;24.83;58.38;100632.50;5034193;28;20201;-64
2023/08/15 02:48:54;;;;;;;7.03;6.30;;;;;;;24.79;58.65;100631.00;5034528;28;20207;-63
2023/08/15 02:51:22;;;;;;;7.00;6.30;;;;;;;24.76;58.88;100631.19;5020791;28;20273;-63
2023/08/15 02:53:50;;;;;;;9.02;7.28;;;;;;;24.70;59.75;100635.03;5034290;28;20207;-64
2023/08/15 02:56:18;;;;;;;8.45;7.50;;;;;;;24.61;60.25;100634.75;5020143;28;20216;-63
2023/08/15 02:58:46;;;;;;;9.93;7.50;;;;;;;24.50;60.54;100630.97;5034232;28;20207;-64
2023/08/15 03:01:14;;;;;;;9.70;7.15;;;;;;;24.45;60.93;100637.44;5034551;28;20654;-62
2023/08/15 03:03:42;;;;;;;9.27;8.35;;;;;;;24.36;61.71;100646.72;5034024;28;20202;-63
2023/08/15 03:06:11;;;;;;;8.63;7.72;;;;;;;24.32;61.91;100645.22;5032765;28;20241;-62
2023/08/15 03:08:39;;;;;;;8.48;7.68;;;;;;;24.28;61.98;100646.34;5033851;28;20206;-63
2023/08/15 03:11:07;;;;;;;11.27;7.78;;;;;;;24.21;62.00;100637.09;5033777;28;20206;-62
2023/08/15 03:13:35;;;;;;;10.73;7.07;;;;;;;24.12;62.72;100638.50;5034205;28;20650;-62
2023/08/15 03:16:04;;;;;;;9.65;8.30;;;;;;;24.06;62.96;100638.84;5024284;28;20226;-63
2023/08/15 03:18:32;;;;;;;9.38;7.53;;;;;;;24.04;63.22;100636.31;5029778;28;20258;-63
2023/08/15 03:21:01;;;;;;;9.05;7.57;;;;;;;24.05;63.35;100637.16;5032272;28;20198;-64
2023/08/15 03:23:31;;;;;;;9.50;7.93;;;;;;;24.02;63.28;100642.59;5033735;28;20641;-63
2023/08/15 03:26:00;;;;;;;9.02;7.25;;;;;;;23.99;63.74;100646.25;5029945;28;20292;-63
2023/08/15 03:28:29;;;;;;;9.32;8.00;;;;;;;24.00;63.46;100647.94;5033252;28;20607;-61
2023/08/15 03:30:57;;;;;;;10.82;8.32;;;;;;;23.98;63.78;100651.63;5032672;28;20202;-64
2023/08/15 03:33:25;;;;;;;10.50;7.55;;;;;;;23.94;63.97;100655.38;5032549;28;20208;-64
2023/08/15 03:35:53;;;;;;;8.68;7.78;;;;;;;23.94;63.96;100658.00;5031659;28;20222;-64
2023/08/15 03:38:22;;;;;;;8.57;7.43;;;;;;;23.94;63.86;100656.22;5032831;28;20681;-63
2023/08/15 03:41:02;;;;;;;11.25;7.80;;;;;;;23.97;63.97;100663.06;5032412;28;20260;-62
2023/08/15 03:43:30;;;;;;;9.77;8.15;;;;;;;23.98;63.88;100657.72;5020142;28;20207;-63
2023/08/15 03:45:58;;;;;;;9.70;7.57;;;;;;;24.01;63.95;100662.81;5032333;28;20199;-62
2023/08/15 03:48:26;;;;;;;10.00;8.63;;;;;;;24.03;63.86;100660.09;5032172;28;20206;-64
2023/08/15 03:50:55;;;;;;;9.23;8.25;;;;;;;24.00;63.50;100666.38;5032501;28;20692;-64
2023/08/15 03:53:23;;;;;;;9.52;8.20;;;;;;;23.95;63.67;100673.69;5032257;28;20257;-63
2023/08/15 03:55:54;;;;;;;9.20;8.27;;;;;;;23.89;64.30;100668.78;5021068;28;20701;-63
2023/08/15 03:58:23;;;;;;;10.13;8.57;;;;;;;23.89;64.19;100670.56;5030421;28;20253;-62
2023/08/15 04:00:51;;;;;;;9.52;8.57;;;;;;;23.88;64.29;100674.97;5032222;28;20557;-63
2023/08/15 04:03:19;;;;;;;8.57;7.75;;;;;;;23.88;64.25;100672.34;5032102;28;20684;-66
2023/08/15 04:05:48;;;;;;;10.25;8.10;;;;;;;23.88;64.32;100677.59;5031434;28;20202;-64
2023/08/15 04:08:16;;;;;;;9.98;9.00;;;;;;;23.86;63.96;100675.06;5031949;28;20726;-64
2023/08/15 04:10:45;;;;;;;8.98;8.00;;;;;;;23.94;64.11;100682.53;5031943;28;20268;-65
2023/08/15 04:13:15;;;;;;;10.93;7.82;;;;;;;23.96;64.04;100679.81;5031758;28;20202;-64
2023/08/15 04:15:43;;;;;;;8.90;7.60;;;;;;;24.01;63.99;100683.88;5031769;28;20228;-70
2023/08/15 04:18:11;;;;;;;8.38;7.57;;;;;;;24.06;63.53;100688.88;5031760;28;20209;-64
2023/08/15 04:20:40;;;;;;;8.77;8.00;;;;;;;24.12;63.38;100685.91;5026047;28;20247;-65
2023/08/15 04:23:09;;;;;;;10.80;7.68;;;;;;;24.21;62.78;100684.50;5021914;28;20226;-62
2023/08/15 04:25:40;;;;;;;9.18;7.30;;;;;;;24.26;62.64;100679.81;5031830;28;20202;-64
2023/08/15 04:28:08;;;;;;;9.00;6.82;;;;;;;24.37;62.22;100684.44;4991738;28;1156439;-63
2023/08/15 04:30:37;;;;;;;8.57;7.78;;;;;;;24.47;62.27;100689.13;5032843;28;20298;-63
2023/08/15 04:33:05;;;;;;;10.02;7.43;;;;;;;24.55;62.11;100692.13;5018974;28;20257;-64
2023/08/15 04:35:33;;;;;;;11.50;6.85;;;;;;;24.65;61.26;100694.25;5031401;28;20230;-64
2023/08/15 04:38:01;;;;;;;7.22;6.28;;;;;;;24.73;60.58;100691.97;5032441;28;20194;-64
2023/08/15 04:40:33;;;;;;;7.80;7.00;;;;;;;24.79;60.28;100695.09;5032403;28;20207;-65
2023/08/15 04:43:02;;;;;;;8.52;7.00;;;;;;;24.85;60.11;100691.22;5032094;28;20203;-63
2023/08/15 04:45:30;;;;;;;7.10;6.47;;;;;;;24.92;59.33;100687.28;5032298;28;20207;-66
2023/08/15 04:47:59;;;;;;;8.02;7.22;;;;;;;25.00;58.94;100700.88;5031476;28;20556;-63
2023/08/15 04:50:28;;;;;;;7.38;6.55;;;;;;;25.08;58.66;100696.91;5032151;28;20299;-63
2023/08/15 04:52:56;;;;;;;7.28;6.57;;;;;;;25.16;58.77;100689.41;5031883;28;20213;-63
2023/08/15 04:55:24;;;;;;;9.88;6.55;;;;;;;25.26;58.41;100686.09;5032614;28;20674;-64
2023/08/15 04:57:52;;;;;;;7.53;6.47;;;;;;;25.44;58.22;100692.00;5029486;28;20245;-62
2023/08/15 05:00:20;;;;;;;8.18;6.28;;;;;;;25.60;57.60;100699.78;5032160;28;20654;-63
2023/08/15 05:02:48;;;;;;;6.65;6.05;;;;;;;25.73;56.85;100695.41;5031864;28;20284;-64
2023/08/15 05:05:18;;;;;;;9.27;6.72;;;;;;;25.86;56.17;100695.50;5031873;28;20209;-63
2023/08/15 05:07:46;;;;;;;7.78;6.32;;;;;;;25.99;56.21;100696.38;5020341;28;20203;-64
2023/08/15 05:10:14;;;;;;;8.30;6.90;;;;;;;26.13;55.51;100698.13;5029698;28;20242;-62
2023/08/15 05:12:42;;;;;;;8.38;6.30;;;;;;;26.25;54.73;100697.31;5031651;28;20202;-67
2023/08/15 05:15:10;;;;;;;6.88;6.18;;;;;;;26.43;54.67;100699.66;5029111;28;20239;-64
2023/08/15 05:17:38;;;;;;;7.10;6.03;;;;;;;26.65;53.99;100697.28;5020430;28;20215;-64
2023/08/15 05:20:07;;;;;;;8.65;6.78;;;;;;;26.94;53.53;100692.63;5031324;28;20264;-63
2023/08/15 05:22:37;;;;;;;6.65;5.95;;;;;;;27.24;52.37;100694.09;5031390;28;20209;-62
2023/08/15 05:25:06;;;;;;;6.82;6.20;;;;;;;27.58;51.53;100699.63;5031842;28;20222;-63
2023/08/15 05:27:34;;;;;;;7.05;6.35;;;;;;;28.00;50.56;100694.84;5029703;28;20257;-64
2023/08/15 05:30:02;;;;;;;9.00;5.90;;;;;;;28.60;48.90;100688.53;5031740;28;20207;-64
2023/08/15 05:32:30;;;;;;;6.70;5.53;;;;;;;29.62;47.01;100686.75;5031594;28;20321;-63
2023/08/15 05:34:58;;;;;;;7.68;5.47;;;;;;;31.04;43.73;100690.72;5031562;28;20701;-64
2023/08/15 05:37:26;;;;;;;7.38;5.68;;;;;;;32.62;39.68;100677.28;5031132;28;20269;-64
2023/08/15 05:39:55;;;;;;;5.90;4.90;;;;;;;33.88;36.64;100681.16;5025109;28;20210;-63
2023/08/15 05:42:23;;;;;;;7.20;5.28;;;;;;;34.60;35.00;100677.41;5024014;28;20222;-64
2023/08/15 05:44:51;;;;;;;6.38;4.95;;;;;;;34.92;33.70;100681.25;5030150;28;20234;-65
2023/08/15 05:47:20;;;;;;;5.78;4.88;;;;;;;35.14;33.32;100679.03;5028377;28;20248;-63
2023/08/15 05:49:49;;;;;;;6.63;5.05;;;;;;;35.34;32.98;100683.94;5030904;28;20203;-64
2023/08/15 05:52:16;;;;;;;5.60;5.10;;;;;;;35.94;32.09;100693.66;5029154;28;20207;-65
2023/08/15 05:54:44;;;;;;;10.25;5.07;;;;;;;36.86;30.92;100683.50;5030678;28;20245;-64
2023/08/15 05:57:14;;;;;;;5.55;5.07;;;;;;;37.72;30.10;100684.44;5031070;28;20578;-64
2023/08/15 05:59:42;;;;;;;6.32;4.60;;;;;;;38.45;28.17;100684.88;5030952;28;20686;-65
2023/08/15 06:02:10;;;;;;;5.63;4.75;;;;;;;39.06;27.29;100682.81;5031317;28;20215;-64
2023/08/15 06:04:38;;;;;;;7.00;4.72;;;;;;;39.74;26.15;100681.56;5031147;28;20230;-66
2023/08/15 06:07:06;;;;;;;4.95;4.45;;;;;;;40.68;24.43;100675.06;5030817;28;20335;-64
2023/08/15 06:09:34;;;;;;;4.75;4.22;;;;;;;41.34;23.63;100664.53;5031084;28;20661;-64
2023/08/15 06:12:04;;;;;;;5.18;4.53;;;;;;;41.93;22.50;100673.81;5030516;28;20213;-65
2023/08/15 06:14:34;;;;;;;5.05;4.55;;;;;;;42.47;21.70;100675.44;5031164;28;20669;-64
2023/08/15 06:17:04;;;;;;;5.72;4.60;;;;;;;43.25;20.72;100682.72;5030425;28;20245;-64
2023/08/15 06:19:31;;;;;;;4.45;4.05;;;;;;;44.05;20.24;100681.16;5030629;28;20235;-64
2023/08/15 06:21:59;;;;;;;5.93;4.18;;;;;;;44.68;19.29;100682.84;5027898;28;20210;-64
2023/08/15 06:24:27;;;;;;;6.30;4.97;;;;;;;45.25;18.49;100674.41;5029893;28;20202;-64
2023/08/15 06:26:55;;;;;;;4.75;4.32;;;;;;;45.80;17.79;100685.09;5030959;28;20222;-65
2023/08/15 06:29:25;;;;;;;4.90;4.10;;;;;;;46.29;17.54;100680.34;5030199;28;20249;-65
2023/08/15 06:31:55;;;;;;;5.60;4.22;;;;;;;46.81;17.08;100685.81;5030629;28;20206;-64
2023/08/15 06:34:23;;;;;;;4.72;4.25;;;;;;;47.35;16.27;100686.34;5022262;28;20209;-65
2023/08/15 06:36:52;;;;;;;10.30;4.15;;;;;;;47.83;15.96;100682.25;5030506;28;20308;-64
2023/08/15 06:39:20;;;;;;;5.43;4.47;;;;;;;48.09;15.53;100689.00;5030097;28;20206;-65
2023/08/15 06:41:48;;;;;;;3.78;3.58;;;;;;;48.35;15.23;100681.13;5030991;28;20248;-64
2023/08/15 06:44:16;;;;;;;4.65;3.97;;;;;;;48.61;15.00;100685.09;5030432;28;20206;-64
2023/08/15 06:46:44;;;;;;;7.05;4.30;;;;;;;48.53;14.87;100683.59;5030011;28;20218;-65
2023/08/15 06:49:14;;;;;;;5.20;4.45;;;;;;;48.30;15.13;100695.56;5030740;28;20637;-64
2023/08/15 06:51:42;;;;;;;7.43;4.32;;;;;;;48.41;14.86;100696.53;5030509;28;20206;-64
2023/08/15 06:54:10;;;;;;;4.65;4.20;;;;;;;48.47;14.53;100689.28;5030351;28;20686;-64
2023/08/15 06:56:38;;;;;;;4.53;4.13;;;;;;;48.22;14.69;100692.44;5030250;28;20209;-64
2023/08/15 06:59:06;;;;;;;4.47;4.07;;;;;;;47.79;15.06;100692.03;5030621;28;20685;-66
2023/08/15 07:01:34;;;;;;;4.68;3.95;;;;;;;47.89;14.97;100685.91;5030440;28;20213;-64
2023/08/15 07:04:02;;;;;;;4.32;3.55;;;;;;;48.40;14.78;100692.16;5030164;28;20210;-65
2023/08/15 07:06:32;;;;;;;4.55;4.10;;;;;;;48.90;13.72;100690.34;5028270;28;20300;-64
2023/08/15 07:09:00;;;;;;;6.55;3.97;;;;;;;49.06;14.18;100692.19;5030263;28;20194;-66
2023/08/15 07:11:28;;;;;;;4.78;4.38;;;;;;;49.20;14.05;100696.22;5032453;28;20209;-64
2023/08/15 07:13:55;;;;;;;4.72;3.78;;;;;;;49.29;13.97;100694.63;5028295;28;20673;-64
2023/08/15 07:16:24;;;;;;;3.97;3.55;;;;;;;49.38;13.35;100696.91;5026431;28;20217;-66
2023/08/15 07:18:52;;;;;;;3.75;2.95;;;;;;;49.61;12.53;100696.63;5033738;28;20222;-68
2023/08/15 07:21:20;;;;;;;4.78;3.83;;;;;;;49.91;13.13;100692.47;5034120;28;20546;-65
2023/08/15 07:23:55;;;;;;;3.55;3.15;;;;;;;49.92;12.99;100694.13;5033516;28;20249;-64
2023/08/15 07:26:23;;;;;;;4.88;4.00;;;;;;;49.94;12.37;100686.47;5033582;28;20245;-64
2023/08/15 07:28:51;;;;;;;5.28;3.58;;;;;;;50.19;12.50;100689.38;5032189;28;20372;-65
2023/08/15 07:31:19;;;;;;;4.25;3.67;;;;;;;50.72;11.97;100692.97;5033646;28;20256;-63
2023/08/15 07:33:46;;;;;;;4.28;3.40;;;;;;;51.25;11.68;100694.78;5033848;28;20225;-64
2023/08/15 07:36:14;;;;;;;3.80;3.28;;;;;;;51.46;11.87;100690.94;5033679;28;20737;-64
2023/08/15 07:38:43;;;;;;;3.97;3.67;;;;;;;51.41;11.94;100694.53;5023152;28;20697;-64
2023/08/15 07:41:12;;;;;;;3.97;3.67;;;;;;;50.10;12.82;100685.47;5030184;28;20705;-66
2023/08/15 07:43:40;;;;;;;4.80;4.05;;;;;;;49.30;13.54;100693.56;5031988;28;20205;-65
2023/08/15 07:46:08;;;;;;;4.78;3.60;;;;;;;49.63;13.49;100690.84;5032529;28;20222;-64
2023/08/15 07:48:36;;;;;;;4.05;3.67;;;;;;;50.06;12.93;100689.00;5033208;28;20202;-69
2023/08/15 07:51:04;;;;;;;3.92;3.60;;;;;;;50.25;12.50;100688.31;5033073;28;20216;-64
2023/08/15 07:53:32;;;;;;;4.10;3.65;;;;;;;50.42;11.97;100687.31;5033084;28;20264;-64
2023/08/15 07:56:00;;;;;;;3.65;3.35;;;;;;;50.89;11.33;100683.66;5033115;28;20297;-64
2023/08/15 07:58:29;;;;;;;4.10;3.42;;;;;;;51.35;11.20;100690.13;5032909;28;20213;-65
2023/08/15 08:00:57;;;;;;;3.13;2.90;;;;;;;51.64;11.02;100687.69;5033436;28;20568;-65
2023/08/15 08:03:25;;;;;;;5.13;3.38;;;;;;;51.92;10.59;100683.56;5032921;28;20198;-65
2023/08/15 08:05:53;;;;;;;5.70;3.42;;;;;;;52.07;10.72;100673.59;5033194;28;20209;-67
2023/08/15 08:08:21;;;;;;;3.45;3.15;;;;;;;51.96;10.60;100685.72;5019234;28;20572;-64
2023/08/15 08:10:50;;;;;;;4.13;3.20;;;;;;;52.15;10.34;100679.38;5032515;28;20206;-64
2023/08/15 08:13:19;;;;;;;4.60;3.67;;;;;;;52.50;10.01;100682.28;5031720;28;20198;-67
2023/08/15 08:15:48;;;;;;;6.57;3.10;;;;;;;52.79;9.83;100671.44;5031061;28;20210;-64
2023/08/15 08:18:16;;;;;;;4.30;3.15;;;;;;;53.05;9.97;100672.94;5032676;28;20224;-65
2023/08/15 08:20:45;;;;;;;9.02;3.63;;;;;;;53.42;9.81;100670.75;5018963;28;20637;-63
2023/08/15 08:23:13;;;;;;;6.55;3.47;;;;;;;53.35;9.50;100673.84;5031439;28;20294;-64
2023/08/15 08:25:41;;;;;;;4.18;3.45;;;;;;;53.14;9.23;100675.09;5018893;28;20236;-64
2023/08/15 08:28:09;;;;;;;4.72;3.20;;;;;;;52.60;9.96;100665.78;5032446;28;20230;-65
2023/08/15 08:30:37;;;;;;;3.80;3.50;;;;;;;52.49;10.39;100672.41;5032784;28;20225;-64
2023/08/15 08:33:07;;;;;;;7.93;3.75;;;;;;;52.64;10.49;100664.09;5021055;28;20303;-65
2023/08/15 08:35:35;;;;;;;3.70;3.30;;;;;;;52.74;10.42;100661.28;5032026;28;20645;-63
2023/08/15 08:38:04;;;;;;;6.18;4.00;;;;;;;52.63;10.34;100663.28;5032171;28;20205;-67
2023/08/15 08:40:32;;;;;;;4.28;3.00;;;;;;;50.87;11.25;100662.00;5021049;28;20206;-63
2023/08/15 08:43:00;;;;;;;5.22;3.25;;;;;;;48.36;12.32;100656.28;5026536;28;20580;-64
2023/08/15 08:45:31;;;;;;;3.85;3.10;;;;;;;45.98;14.25;100655.06;5022412;28;20206;-64
2023/08/15 08:47:59;;;;;;;5.05;3.25;;;;;;;43.87;16.23;100654.78;5032238;28;20206;-65
2023/08/15 08:50:30;;;;;;;4.60;3.70;;;;;;;41.77;19.36;100647.13;5032082;28;20319;-64
2023/08/15 08:52:58;;;;;;;5.68;3.70;;;;;;;40.43;20.65;100644.94;5032075;28;20213;-64
2023/08/15 08:55:28;;;;;;;3.40;3.10;;;;;;;39.54;21.96;100646.25;5031860;28;20301;-64
2023/08/15 08:58:02;;;;;;;5.88;3.63;;;;;;;38.96;22.72;100655.31;5031291;28;20612;-63
2023/08/15 09:00:32;;;;;;;4.72;3.45;;;;;;;38.61;23.23;100644.28;5019725;28;20233;-63
2023/08/15 09:03:00;;;;;;;5.88;3.75;;;;;;;38.25;23.59;100647.66;5030604;28;20206;-65
2023/08/15 09:05:30;;;;;;;4.85;4.30;;;;;;;38.05;23.64;100643.84;5031816;28;20210;-64
2023/08/15 09:07:58;;;;;;;7.07;4.82;;;;;;;37.80;24.08;100638.63;5032139;28;20203;-63
2023/08/15 09:10:26;;;;;;;6.53;4.18;;;;;;;37.72;23.91;100638.72;5031549;28;20205;-63
2023/08/15 09:12:59;;;;;;;7.65;4.00;;;;;;;38.24;23.55;100634.41;5031732;28;20293;-64
2023/08/15 09:15:28;;;;;;;3.53;3.22;;;;;;;39.09;22.30;100640.16;5031934;28;20206;-65
2023/08/15 09:18:00;;;;;;;4.95;3.00;;;;;;;40.21;21.67;100636.06;5031950;28;20649;-63
2023/08/15 09:20:30;;;;;;;5.32;3.20;;;;;;;41.40;20.58;100627.72;5027204;28;20227;-63
2023/08/15 09:23:00;;;;;;;6.13;3.40;;;;;;;42.27;18.60;100634.00;5020265;28;20234;-64
2023/08/15 09:25:30;;;;;;;4.15;3.53;;;;;;;43.16;18.84;100623.31;5031329;28;20206;-63
2023/08/15 09:28:00;;;;;;;9.05;3.38;;;;;;;43.21;17.82;100624.53;5025641;28;20284;-65
2023/08/15 09:30:28;;;;;;;5.22;2.95;;;;;;;43.07;18.08;100629.16;5023865;28;20202;-64
2023/08/15 09:32:56;;;;;;;4.38;3.00;;;;;;;43.03;17.75;100626.03;5030271;28;20198;-65
2023/08/15 09:35:24;;;;;;;4.53;3.10;;;;;;;42.92;17.89;100624.03;5029110;28;20247;-64
2023/08/15 09:37:53;;;;;;;2.60;2.50;;;;;;;42.69;18.07;100622.66;5031481;28;20230;-62
2023/08/15 09:40:23;;;;;;;3.60;3.08;;;;;;;42.20;18.45;100615.88;5031012;28;20210;-63
2023/08/15 09:42:52;;;;;;;2.95;2.63;;;;;;;41.29;18.69;100623.75;5031012;28;20229;-64
2023/08/15 09:45:20;;;;;;;4.60;2.97;;;;;;;40.60;19.80;100619.31;5031420;28;20214;-63
2023/08/15 09:47:48;;;;;;;3.85;2.70;;;;;;;40.20;20.13;100621.75;5016267;28;20289;-64
2023/08/15 09:50:17;;;;;;;4.15;2.58;;;;;;;40.00;21.57;100620.75;5018686;28;20198;-64
2023/08/15 09:52:46;;;;;;;3.53;2.58;;;;;;;39.90;21.16;100620.25;5031353;28;20202;-65
2023/08/15 09:55:21;;;;;;;2.85;2.58;;;;;;;39.63;21.08;100619.19;5031336;28;20205;-65
2023/08/15 09:57:50;;;;;;;3.45;2.40;;;;;;;39.79;20.80;100617.06;5030976;28;20275;-64
2023/08/15 10:00:20;;;;;;;7.15;2.95;;;;;;;39.84;20.11;100614.63;5031212;28;20734;-65
2023/08/15 10:02:53;;;;;;;3.33;2.83;;;;;;;39.78;21.18;100603.78;5020531;28;20214;-64
2023/08/15 10:05:24;;;;;;;4.82;2.58;;;;;;;39.84;20.73;100606.53;5030461;28;20616;-64
2023/08/15 10:07:51;;;;;;;6.15;2.30;;;;;;;40.31;20.43;100602.28;5030838;28;20252;-64
2023/08/15 10:10:22;;;;;;;4.72;2.30;;;;;;;40.89;19.05;100599.25;5030813;28;20202;-63
2023/08/15 10:12:51;;;;;;;5.97;2.85;;;;;;;41.57;19.02;100601.94;5020030;28;20759;-65
2023/08/15 10:15:21;;;;;;;2.90;2.47;;;;;;;41.97;18.00;100601.94;5028952;28;20587;-64
2023/08/15 10:17:50;;;;;;;2.90;2.58;;;;;;;41.96;16.92;100600.28;5030786;28;20213;-64
2023/08/15 10:20:20;;;;;;;4.93;2.40;;;;;;;42.42;16.48;100604.78;5030865;28;20527;-63
2023/08/15 10:22:50;;;;;;;4.05;2.28;;;;;;;42.96;15.64;100595.41;5030709;28;20236;-64
2023/08/15 10:25:35;;;;;;;4.57;2.10;;;;;;;43.64;15.26;100598.34;5029156;28;20609;-64
2023/08/15 10:28:09;;;;;;;3.17;2.20;;;;;;;43.88;15.11;100602.13;5030523;28;20271;-63
2023/08/15 10:30:41;;;;;;;4.28;2.50;;;;;;;43.93;15.05;100589.75;5030676;28;20205;-63
2023/08/15 10:33:19;;;;;;;3.80;2.63;;;;;;;44.25;15.22;100587.75;5029388;28;20194;-64
2023/08/15 10:35:52;;;;;;;3.83;2.42;;;;;;;44.65;14.50;100587.28;5029777;28;20202;-62
2023/08/15 10:38:22;;;;;;;3.50;2.60;;;;;;;45.06;14.65;100576.50;5018399;28;20756;-66
2023/08/15 10:40:54;;;;;;;3.50;2.22;;;;;;;45.15;14.88;100578.88;5030415;28;20249;-64
2023/08/15 10:43:27;;;;;;;2.58;2.38;;;;;;;45.06;14.84;100584.66;5024169;28;20662;-64
2023/08/15 10:45:58;;;;;;;2.72;2.20;;;;;;;44.73;13.74;100584.28;5025954;28;20255;-64
2023/08/15 10:48:47;;;;;;;2.63;1.88;;;;;;;44.35;13.81;100577.22;5034394;28;20202;-63
2023/08/15 10:51:31;;;;;;;4.53;2.20;;;;;;;43.87;13.98;100592.31;5034476;28;20239;-63
2023/08/15 10:54:01;;;;;;;3.90;2.15;;;;;;;43.76;13.80;100578.63;5034198;28;20205;-64
2023/08/15 10:56:31;;;;;;;4.68;1.85;;;;;;;43.45;14.05;100591.16;5034004;28;20309;-63
2023/08/15 10:59:02;;;;;;;2.47;2.00;;;;;;;43.22;13.40;100585.50;5034257;28;20202;-64
2023/08/15 11:01:31;;;;;;;2.40;1.90;;;;;;;42.99;13.66;100586.84;5034053;28;20221;-65
2023/08/15 11:03:59;;;;;;;2.90;2.05;;;;;;;43.16;13.62;100584.50;5032889;28;20202;-64
2023/08/15 11:06:28;;;;;;;2.35;1.60;;;;;;;43.10;13.38;100580.75;5033682;28;20372;-63
2023/08/15 11:08:58;;;;;;;2.17;1.80;;;;;;;42.83;13.42;100593.63;5034266;28;20571;-64
2023/08/15 11:11:27;;;;;;;2.58;1.95;;;;;;;42.99;13.54;100584.13;5033881;28;20198;-65
2023/08/15 11:13:58;;;;;;;1.98;1.75;;;;;;;42.87;13.52;100588.59;5020398;28;20665;-63
2023/08/15 11:16:26;;;;;;;4.57;2.13;;;;;;;42.67;13.71;100591.41;5021105;28;20206;-64
2023/08/15 11:18:56;;;;;;;1.75;1.60;;;;;;;42.66;14.29;100578.88;5032857;28;20297;-65
2023/08/15 11:21:28;;;;;;;2.25;2.05;;;;;;;42.34;14.60;100576.06;5033676;28;20225;-64
2023/08/15 11:23:59;;;;;;;2.70;1.75;;;;;;;42.06;14.40;100576.34;5033788;28;20606;-64
2023/08/15 11:26:28;;;;;;;2.03;1.92;;;;;;;41.69;14.80;100572.41;5033523;28;20316;-65
2023/08/15 11:28:57;;;;;;;3.35;1.77;;;;;;;41.31;15.60;100569.44;5033512;28;20311;-66
2023/08/15 11:31:26;;;;;;;1.95;1.80;;;;;;;41.04;15.64;100574.78;5033662;28;20566;-64
2023/08/15 11:33:54;;;;;;;4.45;2.10;;;;;;;40.53;16.06;100573.31;5031562;28;20650;-63